Huvudsida
METAR-TAF:

METAR-TAF

Flygplatser :

Kemi-Torneå flygplats

Kemi, Finland

latitud: 65-47N, longitud: 024-35E, höjd: 15 m

Aktuellt väderrapport

Denna rapport gjordes för 26 minuter sedan, klockan 15:20 UTC
Vind 11 kt från syd, varierande mellan syd/sydost och sydväst
Temperatur 18°C
Fuktighet 59%
Tryck 1013 hPa
Sikt 10 km eller mer
Inga moln under 1 500 m eller inga cumulonimbus

METAR: EFKE 161520Z 19011KT 150V220 CAVOK 18/10 Q1013

Tid: 18:46 (15:46 UTC)

Väderprognos

Denna rapport gjordes för 1 timme och 26 minuter sedan, klockan 14:20 UTC
Prognos gäller från 16 kl. 15 UTC till 16 kl. 21 UTC
Vind 10 kt från syd
Sikt 10 km eller mer
Inga moln under 1 500 m eller inga cumulonimbus

TAF: EFKE 161420Z 1615/1621 17010KT CAVOK

Aktuella väderrapporter och prognoser från 4000 flygplatser (METAR- och TAF-rapporter).

De tillgängliga stationerna syns som gula och röda prickar på kartan.

För musen över prickarna för att se namnen på stationerna.

Klicka sedan för att få väderrapporter och prognoser.

För att ändra kartan: Klicka på de gröna knapparna med ett svart kors på för att zooma in; den gröna knappen med ett streck på för att zooma ut; eller på de gröna pilarna för angränsande kartor.


METAR-TAF: